Stations

Station Name Date Time Temperature Relative Humidity Precipitation Wind Speed Wind Direction Create Custom Report Daily Report Hourly Report
Aberdeen VT 2017-20-09 18:30
Bee Lake 2017-20-09 18:30 81.7 70.55 0.00 3.79 E
Brooksville 2017-20-09 18:30 79.1 79.78 0.00 1.15 SSW
Brooksville2 VT 2017-20-09 18:30 80.2 64.98 0.00
Brown Loam Exp Stn VT 2017-20-09 18:30 70.1 88.38 1.60
Clarksdale VT 2017-20-09 18:30 87.7 57.15 0.00
COOP Stoneville 2017-19-09 8:00 70.0 92 0.01
Hickory Flat VT 2017-20-09 18:30 81.6 83.26 0.00
Jackson Co 2017-20-09 18:30 83.3 86.60 0.00 0.15 SW
Longwood VT 2017-20-09 18:30 87.4 62.40 0.00
Lyon 2017-20-09 18:30 88.3 62.38 0.00 0.97 S
Macon VT 2017-20-09 18:30 81.2 71.26 0.00
Mound Bayou 2017-20-09 18:30 89.0 56.59 0.00 2.58 S
Olive Branch VT 2017-20-09 18:30
Olive Branch2 VT 2017-20-09 18:30 83.2 78.97 0.00
Prairie 2017-20-09 18:30 85.0 70.22 0.00 4.74 SSE
Sidon 2017-20-09 18:30 86.5 71.93 0.00 4.58 SW
Stockett Farm 2017-20-09 18:30 80.6 89.70 0.00 0.00 SSW
Stoneville AWS 2017-20-09 18:30 86.8 60.95 0.00 4.17 SSW
Stoneville SW 2017-20-09 18:30 88.1 61.50 0.00 4.25 SSW
Stoneville W 2017-20-09 18:30 87.9 61.95 0.00 4.42 S
Thighman 2017-20-09 18:30 88.9 60.04 0.01 2.72 S
Tribbett 2017-20-09 18:30 87.9 64.65 0.00 4.20 S
Verona 2017-20-09 18:30 89.0 66.08 0.00 3.02 SE